createdAt,value
2017-08-27T00:00:49.346Z,1012.01
2017-08-27T00:01:58.481Z,1012.1
2017-08-27T00:03:07.151Z,1012.11
2017-08-27T00:04:16.129Z,1012.15
2017-08-27T00:05:25.098Z,1012.12
2017-08-27T00:06:34.061Z,1012.12
2017-08-27T00:07:43.031Z,1012.15
2017-08-27T00:08:52.625Z,1012.13
2017-08-27T00:10:01.292Z,1012.08
2017-08-27T00:11:09.944Z,1012.07
2017-08-27T00:12:19.226Z,1012.13
2017-08-27T00:13:28.520Z,1012.08
2017-08-27T00:14:37.492Z,1012.06
2017-08-27T00:15:46.465Z,1012.06
2017-08-27T00:16:55.736Z,1012.1
2017-08-27T00:18:04.528Z,1012.08
2017-08-27T00:19:13.508Z,1012.07
2017-08-27T00:20:23.153Z,1012.02
2017-08-27T00:21:31.807Z,1012
2017-08-27T00:22:40.461Z,1011.99
2017-08-27T00:23:49.431Z,1011.94
2017-08-27T00:24:58.709Z,1011.94
2017-08-27T00:26:08.334Z,1011.96
2017-08-27T00:27:17.616Z,1011.96
2017-08-27T00:28:26.280Z,1012.01
2017-08-27T00:29:35.570Z,1012.06
2017-08-27T00:30:44.859Z,1012.12
2017-08-27T00:31:53.856Z,1012.09
2017-08-27T00:33:02.829Z,1012.11
2017-08-27T00:34:11.496Z,1012.1
2017-08-27T00:35:20.158Z,1012.12
2017-08-27T00:36:28.814Z,1012.11
2017-08-27T00:37:37.493Z,1012.1
2017-08-27T00:38:46.154Z,1012.12
2017-08-27T00:39:55.119Z,1012.13
2017-08-27T00:41:03.766Z,1012.11
2017-08-27T00:42:12.427Z,1012.14
2017-08-27T00:43:21.406Z,1012.16
2017-08-27T00:44:30.380Z,1012.14
2017-08-27T00:45:39.671Z,1012.16
2017-08-27T00:46:49.271Z,1012.16
2017-08-27T00:47:58.559Z,1012.2
2017-08-27T00:49:07.524Z,1012.22
2017-08-27T00:50:16.199Z,1012.22
2017-08-27T00:51:25.485Z,1012.18
2017-08-27T00:52:34.787Z,1012.19
2017-08-27T00:53:44.119Z,1012.16
2017-08-27T00:54:53.085Z,1012.19
2017-08-27T00:56:02.050Z,1012.18
2017-08-27T00:57:11.327Z,1012.21
2017-08-27T00:58:19.983Z,1012.2
2017-08-27T00:59:28.636Z,1012.2
2017-08-27T01:00:37.290Z,1012.21
2017-08-27T01:01:46.257Z,1012.2
2017-08-27T01:02:54.919Z,1012.18
2017-08-27T01:04:04.220Z,1012.18
2017-08-27T01:05:12.877Z,1012.19
2017-08-27T01:06:21.846Z,1012.13
2017-08-27T01:07:30.830Z,1012.19
2017-08-27T01:08:39.484Z,1012.17
2017-08-27T01:09:48.145Z,1012.19
2017-08-27T01:10:56.804Z,1012.16
2017-08-27T01:12:07.027Z,1012.16
2017-08-27T01:13:15.985Z,1012.12
2017-08-27T01:14:25.270Z,1012.16
2017-08-27T01:15:33.938Z,1012.09
2017-08-27T01:16:42.904Z,1012.16
2017-08-27T01:17:52.509Z,1012.11
2017-08-27T01:19:01.789Z,1012.06
2017-08-27T01:20:11.074Z,1012.05
2017-08-27T01:21:20.352Z,1012.09
2017-08-27T01:22:29.063Z,1012.03
2017-08-27T01:23:38.338Z,1012.02
2017-08-27T01:24:47.333Z,1012.03
2017-08-27T01:25:56.369Z,1012.06
2017-08-27T01:27:05.361Z,1012.02
2017-08-27T01:28:14.676Z,1012.04
2017-08-27T01:29:23.654Z,1012.04
2017-08-27T01:30:32.626Z,1012.08
2017-08-27T01:31:41.613Z,1012.1
2017-08-27T01:32:50.279Z,1012.16
2017-08-27T01:33:58.946Z,1012.17
2017-08-27T01:35:08.240Z,1012.17
2017-08-27T01:36:16.920Z,1012.21
2017-08-27T01:37:25.898Z,1012.23
2017-08-27T01:38:35.190Z,1012.24
2017-08-27T01:39:44.185Z,1012.25
2017-08-27T01:40:53.141Z,1012.27
2017-08-27T01:42:02.194Z,1012.26
2017-08-27T01:43:11.479Z,1012.27
2017-08-27T01:44:20.773Z,1012.28
2017-08-27T01:45:29.740Z,1012.3
2017-08-27T01:46:38.392Z,1012.31
2017-08-27T01:47:47.369Z,1012.33
2017-08-27T01:48:56.047Z,1012.4
2017-08-27T01:50:05.035Z,1012.4
2017-08-27T01:51:14.313Z,1012.4
2017-08-27T01:52:23.322Z,1012.4
2017-08-27T01:53:32.608Z,1012.41
2017-08-27T01:54:41.272Z,1012.45
2017-08-27T01:55:50.239Z,1012.4
2017-08-27T01:56:59.526Z,1012.43
2017-08-27T01:58:09.446Z,1012.43
2017-08-27T01:59:18.117Z,1012.43
2017-08-27T02:00:27.422Z,1012.42
2017-08-27T02:01:36.079Z,1012.49
2017-08-27T02:02:45.360Z,1012.48
2017-08-27T02:03:54.340Z,1012.5
2017-08-27T02:05:03.326Z,1012.51
2017-08-27T02:06:12.616Z,1012.55
2017-08-27T02:07:21.600Z,1012.53
2017-08-27T02:08:30.882Z,1012.55
2017-08-27T02:09:40.160Z,1012.53
2017-08-27T02:10:49.137Z,1012.55
2017-08-27T02:11:58.430Z,1012.57
2017-08-27T02:13:07.412Z,1012.56
2017-08-27T02:14:16.707Z,1012.57
2017-08-27T02:15:25.991Z,1012.57
2017-08-27T02:16:34.963Z,1012.56
2017-08-27T02:17:44.265Z,1012.54
2017-08-27T02:18:54.205Z,1012.5
2017-08-27T02:20:03.185Z,1012.5
2017-08-27T02:21:12.795Z,1012.44
2017-08-27T02:22:22.704Z,1012.45
2017-08-27T02:23:31.678Z,1012.45
2017-08-27T02:24:40.647Z,1012.44
2017-08-27T02:25:49.937Z,1012.42
2017-08-27T02:26:58.909Z,1012.42
2017-08-27T02:28:07.901Z,1012.46
2017-08-27T02:29:17.185Z,1012.44
2017-08-27T02:30:26.149Z,1012.47
2017-08-27T02:31:35.762Z,1012.49
2017-08-27T02:32:44.413Z,1012.47
2017-08-27T02:33:53.726Z,1012.39
2017-08-27T02:35:03.010Z,1012.42
2017-08-27T02:36:11.978Z,1012.44
2017-08-27T02:37:21.892Z,1012.42
2017-08-27T02:38:30.869Z,1012.44
2017-08-27T02:39:40.149Z,1012.43
2017-08-27T02:40:49.116Z,1012.42
2017-08-27T02:41:58.716Z,1012.42
2017-08-27T02:43:08.009Z,1012.39
2017-08-27T02:44:16.666Z,1012.4
2017-08-27T02:45:25.631Z,1012.36
2017-08-27T02:46:34.267Z,1012.37
2017-08-27T02:47:43.543Z,1012.43
2017-08-27T02:48:52.812Z,1012.37
2017-08-27T02:50:02.753Z,1012.35
2017-08-27T02:51:11.524Z,1012.41
2017-08-27T02:52:20.823Z,1012.4
2017-08-27T02:53:29.866Z,1012.44
2017-08-27T02:54:38.847Z,1012.47
2017-08-27T02:55:47.506Z,1012.5
2017-08-27T02:56:56.169Z,1012.5
2017-08-27T02:58:05.461Z,1012.48
2017-08-27T02:59:14.433Z,1012.46
2017-08-27T03:00:23.405Z,1012.45
2017-08-27T03:01:32.364Z,1012.38
2017-08-27T03:02:41.339Z,1012.38
2017-08-27T03:03:50.316Z,1012.36
2017-08-27T03:04:59.289Z,1012.36
2017-08-27T03:06:08.579Z,1012.34
2017-08-27T03:07:17.612Z,1012.35
2017-08-27T03:08:26.596Z,1012.35
2017-08-27T03:09:35.570Z,1012.32
2017-08-27T03:10:44.858Z,1012.29
2017-08-27T03:11:54.142Z,1012.29
2017-08-27T03:13:03.417Z,1012.28
2017-08-27T03:14:12.078Z,1012.33
2017-08-27T03:15:20.728Z,1012.31
2017-08-27T03:16:30.328Z,1012.35
2017-08-27T03:17:39.322Z,1012.33
2017-08-27T03:18:48.595Z,1012.35
2017-08-27T03:19:57.874Z,1012.35
2017-08-27T03:21:07.169Z,1012.35
2017-08-27T03:22:16.538Z,1012.33
2017-08-27T03:23:25.813Z,1012.34
2017-08-27T03:24:34.792Z,1012.35
2017-08-27T03:25:44.716Z,1012.3
2017-08-27T03:26:54.023Z,1012.31
2017-08-27T03:28:03.306Z,1012.25
2017-08-27T03:29:12.903Z,1012.26
2017-08-27T03:30:21.561Z,1012.28
2017-08-27T03:31:30.270Z,1012.29
2017-08-27T03:32:39.557Z,1012.25
2017-08-27T03:33:49.150Z,1012.26
2017-08-27T03:34:57.798Z,1012.28
2017-08-27T03:36:06.453Z,1012.29
2017-08-27T03:37:15.417Z,1012.28
2017-08-27T03:38:24.084Z,1012.28
2017-08-27T03:39:33.049Z,1012.26
2017-08-27T03:40:42.338Z,1012.25
2017-08-27T03:41:51.339Z,1012.28
2017-08-27T03:43:00.626Z,1012.26
2017-08-27T03:44:09.291Z,1012.3
2017-08-27T03:45:18.611Z,1012.35
2017-08-27T03:46:27.593Z,1012.36
2017-08-27T03:47:36.886Z,1012.36
2017-08-27T03:48:45.545Z,1012.33
2017-08-27T03:49:54.266Z,1012.31
2017-08-27T03:51:03.312Z,1012.33
2017-08-27T03:52:12.618Z,1012.38
2017-08-27T03:53:21.599Z,1012.35
2017-08-27T03:54:30.575Z,1012.35
2017-08-27T03:55:39.550Z,1012.38
2017-08-27T03:56:48.510Z,1012.36
2017-08-27T03:57:57.174Z,1012.36
2017-08-27T03:59:05.846Z,1012.37
2017-08-27T04:00:15.124Z,1012.36
2017-08-27T04:01:24.116Z,1012.41
2017-08-27T04:02:33.400Z,1012.43
2017-08-27T04:03:42.719Z,1012.48
2017-08-27T04:04:52.020Z,1012.44
2017-08-27T04:06:01.008Z,1012.5
2017-08-27T04:07:09.670Z,1012.46
2017-08-27T04:08:18.651Z,1012.52
2017-08-27T04:09:27.622Z,1012.52
2017-08-27T04:10:36.914Z,1012.55
2017-08-27T04:11:45.576Z,1012.57
2017-08-27T04:12:54.867Z,1012.58
2017-08-27T04:14:03.851Z,1012.67
2017-08-27T04:15:13.443Z,1012.61
2017-08-27T04:16:22.720Z,1012.65
2017-08-27T04:17:31.700Z,1012.6
2017-08-27T04:18:40.991Z,1012.62
2017-08-27T04:19:49.672Z,1012.67
2017-08-27T04:20:58.702Z,1012.71
2017-08-27T04:22:07.999Z,1012.71
2017-08-27T04:23:17.283Z,1012.77
2017-08-27T04:24:26.245Z,1012.78
2017-08-27T04:25:36.149Z,1012.78
2017-08-27T04:26:45.119Z,1012.75
2017-08-27T04:27:54.088Z,1012.81
2017-08-27T04:29:04.003Z,1012.83
2017-08-27T04:30:12.977Z,1012.83
2017-08-27T04:31:21.638Z,1012.83
2017-08-27T04:32:30.354Z,1012.84
2017-08-27T04:33:39.657Z,1012.79
2017-08-27T04:34:48.948Z,1012.77
2017-08-27T04:35:57.917Z,1012.79
2017-08-27T04:37:06.884Z,1012.77
2017-08-27T04:38:15.873Z,1012.78
2017-08-27T04:39:24.838Z,1012.79
2017-08-27T04:40:34.129Z,1012.79
2017-08-27T04:41:43.416Z,1012.82
2017-08-27T04:42:52.729Z,1012.8
2017-08-27T04:46:34.381Z,1012.87
2017-08-27T04:47:43.668Z,1012.84
2017-08-27T04:48:52.333Z,1012.82
2017-08-27T04:52:34.302Z,1012.85
2017-08-27T04:53:43.275Z,1012.85
2017-08-27T04:54:53.511Z,1012.9
2017-08-27T04:56:02.809Z,1012.88
2017-08-27T04:57:11.776Z,1012.88
2017-08-27T04:58:20.759Z,1012.86
2017-08-27T04:59:29.719Z,1012.9
2017-08-27T05:00:39.311Z,1012.85
2017-08-27T05:01:48.289Z,1012.9
2017-08-27T05:02:57.282Z,1012.86
2017-08-27T05:04:06.574Z,1012.89
2017-08-27T05:05:15.549Z,1012.9
2017-08-27T05:06:24.525Z,1012.91
2017-08-27T05:07:33.501Z,1012.92
2017-08-27T05:08:42.467Z,1012.94
2017-08-27T05:09:51.766Z,1012.97
2017-08-27T05:11:01.065Z,1012.94
2017-08-27T05:12:10.344Z,1012.98
2017-08-27T05:13:19.346Z,1012.96
2017-08-27T05:14:28.315Z,1013.01
2017-08-27T05:15:37.286Z,1013.04
2017-08-27T05:16:46.277Z,1013.02
2017-08-27T05:17:55.261Z,1013.01
2017-08-27T05:19:04.231Z,1013.02
2017-08-27T05:20:12.878Z,1012.99
2017-08-27T05:21:22.162Z,1012.98
2017-08-27T05:22:31.454Z,1013
2017-08-27T05:23:40.427Z,1012.95
2017-08-27T05:24:49.486Z,1012.97
2017-08-27T05:25:58.267Z,1012.98
2017-08-27T05:27:07.488Z,1013.02
2017-08-27T05:28:16.492Z,1013.02
2017-08-27T05:29:26.071Z,1013.02
2017-08-27T05:30:35.509Z,1013.01
2017-08-27T05:31:44.596Z,1013.02
2017-08-27T05:32:54.422Z,1012.99
2017-08-27T05:34:03.784Z,1013.02
2017-08-27T05:35:12.428Z,1012.99
2017-08-27T05:36:21.835Z,1013.01
2017-08-27T05:37:30.951Z,1013.01
2017-08-27T05:38:40.446Z,1013.03
2017-08-27T05:39:49.472Z,1013.05
2017-08-27T05:40:58.443Z,1013.04
2017-08-27T05:42:07.114Z,1013.03
2017-08-27T05:43:16.398Z,1013.04
2017-08-27T05:44:25.681Z,1013.05
2017-08-27T05:45:35.302Z,1013.1
2017-08-27T05:46:44.951Z,1013.1
2017-08-27T05:47:54.054Z,1013.08
2017-08-27T05:49:03.575Z,1013.06
2017-08-27T05:50:12.552Z,1013.05
2017-08-27T05:51:21.835Z,1013.05
2017-08-27T05:52:30.489Z,1013.01
2017-08-27T05:53:40.093Z,1013.01
2017-08-27T05:54:49.383Z,1013.03
2017-08-27T05:55:58.683Z,1013.04
2017-08-27T05:57:07.342Z,1013.05
2017-08-27T05:58:16.640Z,1013.03
2017-08-27T05:59:25.939Z,1013.03
2017-08-27T06:00:34.613Z,1012.97
2017-08-27T06:01:44.255Z,1012.97
2017-08-27T06:02:53.242Z,1012.97
2017-08-27T06:04:02.204Z,1012.99
2017-08-27T06:05:11.169Z,1013
2017-08-27T06:06:20.154Z,1013.03
2017-08-27T06:07:29.128Z,1013.01
2017-08-27T06:08:38.411Z,1013.02
2017-08-27T06:09:47.059Z,1013.03
2017-08-27T06:10:56.022Z,1013.06
2017-08-27T06:12:05.088Z,1013.05
2017-08-27T06:13:14.400Z,1013.08
2017-08-27T06:14:23.397Z,1013.09
2017-08-27T06:15:32.712Z,1013.11
2017-08-27T06:16:41.705Z,1013.15
2017-08-27T06:17:51.310Z,1013.15
2017-08-27T06:19:00.285Z,1013.16
2017-08-27T06:20:09.253Z,1013.15
2017-08-27T06:21:18.218Z,1013.17
2017-08-27T06:22:26.881Z,1013.18
2017-08-27T06:23:36.175Z,1013.17
2017-08-27T06:24:44.822Z,1013.22
2017-08-27T06:25:54.122Z,1013.21
2017-08-27T06:27:03.116Z,1013.24
2017-08-27T06:28:12.415Z,1013.31
2017-08-27T06:29:21.389Z,1013.33
2017-08-27T06:30:30.078Z,1013.33
2017-08-27T06:31:39.369Z,1013.34
2017-08-27T06:32:48.331Z,1013.36
2017-08-27T06:33:57.615Z,1013.31
2017-08-27T06:35:06.907Z,1013.36
2017-08-27T06:36:15.911Z,1013.33
2017-08-27T06:37:24.598Z,1013.35
2017-08-27T06:38:33.890Z,1013.33
2017-08-27T06:39:43.490Z,1013.33
2017-08-27T06:40:53.120Z,1013.3
2017-08-27T06:42:01.790Z,1013.34
2017-08-27T06:43:10.460Z,1013.34
2017-08-27T06:44:19.135Z,1013.36
2017-08-27T06:45:28.412Z,1013.41
2017-08-27T06:46:37.091Z,1013.42
2017-08-27T06:47:46.372Z,1013.42
2017-08-27T06:48:55.055Z,1013.47
2017-08-27T06:50:03.710Z,1013.45
2017-08-27T06:51:13.033Z,1013.49
2017-08-27T06:52:22.643Z,1013.52
2017-08-27T06:53:31.940Z,1013.55
2017-08-27T06:54:40.909Z,1013.54
2017-08-27T06:55:49.895Z,1013.53
2017-08-27T06:56:58.868Z,1013.5
2017-08-27T06:58:07.834Z,1013.5
2017-08-27T06:59:16.818Z,1013.53
2017-08-27T07:00:25.789Z,1013.55
2017-08-27T07:01:35.074Z,1013.53
2017-08-27T07:02:43.730Z,1013.58
2017-08-27T07:03:52.691Z,1013.61
2017-08-27T07:05:02.320Z,1013.64
2017-08-27T07:06:11.293Z,1013.59
2017-08-27T07:07:20.264Z,1013.61
2017-08-27T07:08:29.552Z,1013.63
2017-08-27T07:09:38.838Z,1013.65
2017-08-27T07:10:48.125Z,1013.64
2017-08-27T07:11:57.094Z,1013.63
2017-08-27T07:13:06.064Z,1013.59
2017-08-27T07:14:15.031Z,1013.62
2017-08-27T07:15:23.692Z,1013.6
2017-08-27T07:16:32.973Z,1013.6
2017-08-27T07:17:41.955Z,1013.61
2017-08-27T07:18:50.609Z,1013.63
2017-08-27T07:20:12.326Z,1013.65
2017-08-27T07:21:21.329Z,1013.68
2017-08-27T07:22:30.300Z,1013.67
2017-08-27T07:23:39.285Z,1013.68
2017-08-27T07:24:48.252Z,1013.72
2017-08-27T07:25:57.552Z,1013.72
2017-08-27T07:27:06.541Z,1013.74
2017-08-27T07:28:15.973Z,1013.75
2017-08-27T07:29:25.025Z,1013.75
2017-08-27T07:30:34.324Z,1013.77
2017-08-27T07:31:43.937Z,1013.76
2017-08-27T07:32:53.234Z,1013.8
2017-08-27T07:34:02.361Z,1013.79
2017-08-27T07:35:11.666Z,1013.78
2017-08-27T07:36:20.954Z,1013.86
2017-08-27T07:37:29.616Z,1013.93
2017-08-27T07:38:38.951Z,1013.91
2017-08-27T07:39:48.694Z,1013.97
2017-08-27T07:40:57.663Z,1013.96
2017-08-27T07:42:06.683Z,1014.02
2017-08-27T07:43:15.668Z,1014.01
2017-08-27T07:44:24.961Z,1014.02
2017-08-27T07:45:33.924Z,1013.99
2017-08-27T07:46:42.579Z,1013.98
2017-08-27T07:47:52.193Z,1013.98
2017-08-27T07:49:01.508Z,1013.96
2017-08-27T07:50:10.798Z,1013.95
2017-08-27T07:51:19.459Z,1014.02
2017-08-27T07:52:28.751Z,1013.99
2017-08-27T07:53:37.730Z,1014.02
2017-08-27T07:54:47.025Z,1014.04
2017-08-27T07:55:55.991Z,1014.07
2017-08-27T07:57:05.335Z,1014.07
2017-08-27T07:58:14.001Z,1014.12
2017-08-27T07:59:22.659Z,1014.09
2017-08-27T08:00:31.336Z,1014.11
2017-08-27T08:01:40.648Z,1014.09
2017-08-27T08:02:50.302Z,1014.14
2017-08-27T08:03:58.957Z,1014.12
2017-08-27T08:05:07.611Z,1014.1
2017-08-27T08:06:17.522Z,1014.1
2017-08-27T08:07:26.485Z,1014.1
2017-08-27T08:08:35.920Z,1014.11
2017-08-27T08:09:44.882Z,1014.16
2017-08-27T08:10:53.552Z,1014.17
2017-08-27T08:12:02.844Z,1014.2
2017-08-27T08:13:11.806Z,1014.21
2017-08-27T08:14:20.771Z,1014.2
2017-08-27T08:15:30.398Z,1014.21
2017-08-27T08:16:39.375Z,1014.25
2017-08-27T08:17:48.364Z,1014.23
2017-08-27T08:18:57.653Z,1014.23
2017-08-27T08:20:06.768Z,1014.25
2017-08-27T08:21:15.744Z,1014.22
2017-08-27T08:22:25.055Z,1014.21
2017-08-27T08:23:34.343Z,1014.23
2017-08-27T08:24:43.363Z,1014.21
2017-08-27T08:25:52.799Z,1014.21
2017-08-27T08:27:01.794Z,1014.24
2017-08-27T08:28:10.781Z,1014.2
2017-08-27T08:29:19.773Z,1014.23
2017-08-27T08:30:28.428Z,1014.23
2017-08-27T08:31:37.392Z,1014.23
2017-08-27T08:32:46.103Z,1014.24
2017-08-27T08:33:55.703Z,1014.23
2017-08-27T08:35:04.721Z,1014.19
2017-08-27T08:36:13.701Z,1014.22
2017-08-27T08:37:22.837Z,1014.23
2017-08-27T08:38:32.465Z,1014.2
2017-08-27T08:39:41.455Z,1014.18
2017-08-27T08:40:50.430Z,1014.16
2017-08-27T08:41:59.732Z,1014.15
2017-08-27T08:43:08.689Z,1014.17
2017-08-27T08:44:17.996Z,1014.14
2017-08-27T08:45:26.661Z,1014.13
2017-08-27T08:46:35.936Z,1014.13
2017-08-27T08:47:44.607Z,1014.13
2017-08-27T08:48:54.040Z,1014.17
2017-08-27T08:50:03.031Z,1014.17
2017-08-27T08:51:12.003Z,1014.18
2017-08-27T08:52:20.663Z,1014.2
2017-08-27T08:53:29.640Z,1014.17
2017-08-27T08:54:39.463Z,1014.19
2017-08-27T08:55:49.199Z,1014.19
2017-08-27T08:56:58.447Z,1014.22
2017-08-27T08:58:08.188Z,1014.17
2017-08-27T08:59:17.890Z,1014.15
2017-08-27T09:00:27.836Z,1014.17
2017-08-27T09:01:36.848Z,1014.13
2017-08-27T09:02:45.841Z,1014.16
2017-08-27T09:03:54.812Z,1014.17
2017-08-27T09:05:04.346Z,1014.17
2017-08-27T09:06:13.483Z,1014.2
2017-08-27T09:07:23.048Z,1014.23
2017-08-27T09:08:33.130Z,1014.24
2017-08-27T09:09:42.447Z,1014.24
2017-08-27T09:10:51.433Z,1014.26
2017-08-27T09:12:00.733Z,1014.21
2017-08-27T09:13:09.744Z,1014.23
2017-08-27T09:14:18.751Z,1014.23
2017-08-27T09:15:27.781Z,1014.22
2017-08-27T09:16:37.194Z,1014.28
2017-08-27T09:17:46.824Z,1014.28
2017-08-27T09:18:55.880Z,1014.28
2017-08-27T09:20:05.542Z,1014.28
2017-08-27T09:21:14.259Z,1014.31
2017-08-27T09:22:23.341Z,1014.36
2017-08-27T09:23:32.031Z,1014.32
2017-08-27T09:24:40.706Z,1014.34
2017-08-27T09:25:50.325Z,1014.29
2017-08-27T09:26:59.619Z,1014.3
2017-08-27T09:28:09.251Z,1014.3
2017-08-27T09:29:18.072Z,1014.27
2017-08-27T09:30:27.102Z,1014.25
2017-08-27T09:31:36.782Z,1014.28
2017-08-27T09:32:45.781Z,1014.28
2017-08-27T09:33:55.421Z,1014.26
2017-08-27T09:35:04.910Z,1014.27
2017-08-27T09:36:13.571Z,1014.29
2017-08-27T09:37:22.554Z,1014.25
2017-08-27T09:38:31.253Z,1014.25
2017-08-27T09:39:39.933Z,1014.2
2017-08-27T09:40:49.350Z,1014.16
2017-08-27T09:41:58.061Z,1014.18
2017-08-27T09:43:07.074Z,1014.19
2017-08-27T09:44:15.768Z,1014.22
2017-08-27T09:45:24.459Z,1014.29
2017-08-27T09:46:33.620Z,1014.27
2017-08-27T09:47:42.600Z,1014.29
2017-08-27T09:48:51.897Z,1014.33
2017-08-27T09:50:01.557Z,1014.35
2017-08-27T09:51:10.877Z,1014.33
2017-08-27T09:52:20.558Z,1014.36
2017-08-27T09:53:29.539Z,1014.33
2017-08-27T09:54:38.534Z,1014.35
2017-08-27T09:55:47.827Z,1014.4
2017-08-27T09:56:57.446Z,1014.39
2017-08-27T09:58:06.850Z,1014.41
2017-08-27T09:59:16.150Z,1014.4
2017-08-27T10:00:25.168Z,1014.34
2017-08-27T10:01:35.483Z,1014.34
2017-08-27T10:02:44.152Z,1014.32
2017-08-27T10:03:53.868Z,1014.28
2017-08-27T10:05:02.858Z,1014.35
2017-08-27T10:06:11.825Z,1014.34
2017-08-27T10:07:20.502Z,1014.45
2017-08-27T10:08:30.131Z,1014.38
2017-08-27T10:09:39.258Z,1014.45
2017-08-27T10:10:48.582Z,1014.45
2017-08-27T10:11:57.600Z,1014.43
2017-08-27T10:13:06.917Z,1014.42
2017-08-27T10:14:15.916Z,1014.43
2017-08-27T10:15:26.188Z,1014.44
2017-08-27T10:16:35.462Z,1014.42
2017-08-27T10:17:44.452Z,1014.42
2017-08-27T10:18:53.110Z,1014.43
2017-08-27T10:20:01.774Z,1014.41
2017-08-27T10:21:11.582Z,1014.43
2017-08-27T10:22:20.276Z,1014.45
2017-08-27T10:23:29.320Z,1014.4
2017-08-27T10:24:37.996Z,1014.37
2017-08-27T10:25:47.312Z,1014.4
2017-08-27T10:26:56.817Z,1014.41
2017-08-27T10:28:06.770Z,1014.41
2017-08-27T10:29:15.865Z,1014.45
2017-08-27T10:30:25.158Z,1014.4
2017-08-27T10:31:34.557Z,1014.38
2017-08-27T10:32:44.400Z,1014.43
2017-08-27T10:33:53.701Z,1014.49
2017-08-27T10:35:02.675Z,1014.46
2017-08-27T10:36:11.967Z,1014.46
2017-08-27T10:37:20.958Z,1014.46
2017-08-27T10:38:29.939Z,1014.4
2017-08-27T10:39:38.973Z,1014.39
2017-08-27T10:40:47.740Z,1014.33
2017-08-27T10:41:57.355Z,1014.31
2017-08-27T10:43:06.101Z,1014.31
2017-08-27T10:44:15.103Z,1014.3
2017-08-27T10:45:24.085Z,1014.24
2017-08-27T10:46:33.375Z,1014.26
2017-08-27T10:47:42.047Z,1014.26
2017-08-27T10:48:51.342Z,1014.21
2017-08-27T10:50:00.638Z,1014.22
2017-08-27T10:51:09.608Z,1014.25
2017-08-27T10:52:18.581Z,1014.19
2017-08-27T10:53:27.258Z,1014.19
2017-08-27T10:54:36.558Z,1014.24
2017-08-27T10:55:45.861Z,1014.22
2017-08-27T10:56:54.833Z,1014.19
2017-08-27T10:58:03.854Z,1014.23
2017-08-27T10:59:12.542Z,1014.2
2017-08-27T11:00:21.544Z,1014.22
2017-08-27T11:01:30.997Z,1014.24
2017-08-27T11:02:40.297Z,1014.19
2017-08-27T11:03:49.924Z,1014.28
2017-08-27T11:04:58.899Z,1014.24
2017-08-27T11:06:08.260Z,1014.26
2017-08-27T11:07:17.598Z,1014.19
2017-08-27T11:10:59.285Z,1014.25
2017-08-27T11:12:08.256Z,1014.24
2017-08-27T11:13:17.380Z,1014.17
2017-08-27T11:14:26.367Z,1014.18
2017-08-27T11:15:35.995Z,1014.17
2017-08-27T11:16:45.295Z,1014.2
2017-08-27T11:17:54.574Z,1014.2
2017-08-27T11:19:03.575Z,1014.18
2017-08-27T11:20:12.227Z,1014.17
2017-08-27T11:21:20.896Z,1014.16
2017-08-27T11:22:30.211Z,1014.14
2017-08-27T11:23:39.817Z,1014.12
2017-08-27T11:24:48.905Z,1014.14
2017-08-27T11:25:58.204Z,1014.1
2017-08-27T11:27:06.928Z,1014.1
2017-08-27T11:28:15.917Z,1014.11
2017-08-27T11:29:24.899Z,1014.09
2017-08-27T11:30:34.231Z,1014.12
2017-08-27T11:31:42.905Z,1014.1
2017-08-27T11:32:52.186Z,1014.12
2017-08-27T11:34:01.167Z,1014.1
2017-08-27T11:35:10.162Z,1014.12
2017-08-27T11:36:19.299Z,1014.11
2017-08-27T11:37:27.965Z,1014.12
2017-08-27T11:38:37.280Z,1014.15
2017-08-27T11:39:46.597Z,1014.16
2017-08-27T11:40:55.600Z,1014.11
2017-08-27T11:42:05.056Z,1014.08
2017-08-27T11:43:14.029Z,1014.07
2017-08-27T11:44:23.000Z,1014.09
2017-08-27T11:45:31.982Z,1014.1
2017-08-27T11:46:40.651Z,1014.09
2017-08-27T11:47:49.694Z,1014.04
2017-08-27T11:48:58.701Z,1014.06
2017-08-27T11:50:07.675Z,1014.09
2017-08-27T11:51:16.666Z,1014.07
2017-08-27T11:52:26.270Z,1014.03
2017-08-27T11:53:35.290Z,1013.96
2017-08-27T11:54:44.270Z,1013.94
2017-08-27T11:55:53.561Z,1013.96
2017-08-27T11:57:02.587Z,1013.98
2017-08-27T11:58:11.262Z,1013.91
2017-08-27T11:59:20.251Z,1013.89
2017-08-27T12:00:29.870Z,1013.87
2017-08-27T12:01:38.546Z,1013.86
2017-08-27T12:02:47.848Z,1013.82
2017-08-27T12:03:57.178Z,1013.78
2017-08-27T12:05:06.522Z,1013.76
2017-08-27T12:06:15.268Z,1013.8
2017-08-27T12:07:24.582Z,1013.77
2017-08-27T12:08:33.273Z,1013.8
2017-08-27T12:09:42.593Z,1013.77
2017-08-27T12:10:51.255Z,1013.74
2017-08-27T12:12:00.564Z,1013.75
2017-08-27T12:13:09.250Z,1013.77
2017-08-27T12:14:18.550Z,1013.8
2017-08-27T12:15:27.549Z,1013.78
2017-08-27T12:16:37.008Z,1013.8
2017-08-27T12:17:46.608Z,1013.79
2017-08-27T12:18:55.281Z,1013.74
2017-08-27T12:20:03.963Z,1013.77
2017-08-27T12:21:12.624Z,1013.75
2017-08-27T12:22:21.792Z,1013.79
2017-08-27T12:23:30.457Z,1013.78
2017-08-27T12:24:39.425Z,1013.78
2017-08-27T12:25:48.398Z,1013.81
2017-08-27T12:26:57.388Z,1013.78
2017-08-27T12:28:06.709Z,1013.77
2017-08-27T12:29:16.027Z,1013.77
2017-08-27T12:30:25.013Z,1013.75
2017-08-27T12:31:34.295Z,1013.75
2017-08-27T12:32:43.589Z,1013.72
2017-08-27T12:33:53.199Z,1013.76
2017-08-27T12:35:01.867Z,1013.78
2017-08-27T12:36:10.522Z,1013.76
2017-08-27T12:37:19.181Z,1013.76
2017-08-27T12:38:28.146Z,1013.8
2017-08-27T12:39:37.811Z,1013.77
2017-08-27T12:40:46.790Z,1013.76
2017-08-27T12:41:56.079Z,1013.79
2017-08-27T12:43:05.366Z,1013.75
2017-08-27T12:44:14.671Z,1013.78
2017-08-27T12:45:24.301Z,1013.77
2017-08-27T12:46:33.900Z,1013.73
2017-08-27T12:47:42.582Z,1013.75
2017-08-27T12:48:51.872Z,1013.68
2017-08-27T12:50:01.175Z,1013.68
2017-08-27T12:51:10.567Z,1013.69
2017-08-27T12:52:19.868Z,1013.69
2017-08-27T12:53:28.837Z,1013.71
2017-08-27T12:54:37.809Z,1013.67
2017-08-27T12:55:46.775Z,1013.67
2017-08-27T12:56:56.206Z,1013.7
2017-08-27T12:58:05.499Z,1013.72
2017-08-27T12:59:14.781Z,1013.78
2017-08-27T13:00:23.440Z,1013.76
2017-08-27T13:01:32.748Z,1013.75
2017-08-27T13:02:42.063Z,1013.74
2017-08-27T13:03:51.360Z,1013.77
2017-08-27T13:05:00.971Z,1013.74
2017-08-27T13:06:09.988Z,1013.76
2017-08-27T13:07:19.600Z,1013.74
2017-08-27T13:08:28.351Z,1013.73
2017-08-27T13:09:37.723Z,1013.76
2017-08-27T13:10:47.010Z,1013.73
2017-08-27T13:11:56.613Z,1013.77
2017-08-27T13:13:05.612Z,1013.79
2017-08-27T13:14:14.958Z,1013.73
2017-08-27T13:15:23.938Z,1013.75
2017-08-27T13:16:32.930Z,1013.72
2017-08-27T13:17:41.646Z,1013.73
2017-08-27T13:18:50.606Z,1013.69
2017-08-27T13:19:59.578Z,1013.68
2017-08-27T13:21:08.549Z,1013.74
2017-08-27T13:22:17.818Z,1013.69
2017-08-27T13:23:26.791Z,1013.68
2017-08-27T13:24:35.450Z,1013.68
2017-08-27T13:25:45.200Z,1013.67
2017-08-27T13:26:54.177Z,1013.64
2017-08-27T13:28:03.443Z,1013.62
2017-08-27T13:29:13.063Z,1013.58
2017-08-27T13:30:22.045Z,1013.62
2017-08-27T13:31:30.845Z,1013.61
2017-08-27T13:32:39.829Z,1013.58
2017-08-27T13:33:48.802Z,1013.51
2017-08-27T13:34:58.083Z,1013.59
2017-08-27T13:36:07.690Z,1013.56
2017-08-27T13:37:16.830Z,1013.6
2017-08-27T13:38:25.516Z,1013.56
2017-08-27T13:39:34.505Z,1013.53
2017-08-27T13:40:43.784Z,1013.52
2017-08-27T13:41:52.459Z,1013.56
2017-08-27T13:43:01.580Z,1013.59
2017-08-27T13:44:10.600Z,1013.55
2017-08-27T13:45:19.582Z,1013.57
2017-08-27T13:46:28.555Z,1013.54
2017-08-27T13:47:38.184Z,1013.54
2017-08-27T13:48:47.452Z,1013.55
2017-08-27T13:49:56.422Z,1013.59
2017-08-27T13:51:05.406Z,1013.55
2017-08-27T13:52:14.388Z,1013.49
2017-08-27T13:53:23.985Z,1013.51
2017-08-27T13:54:32.810Z,1013.48
2017-08-27T13:55:42.090Z,1013.49
2017-08-27T13:56:51.127Z,1013.46
2017-08-27T13:58:00.098Z,1013.49
2017-08-27T13:59:09.384Z,1013.51
2017-08-27T14:00:18.791Z,1013.48
2017-08-27T14:01:27.448Z,1013.47
2017-08-27T14:02:36.419Z,1013.46
2017-08-27T14:03:45.386Z,1013.49
2017-08-27T14:04:54.683Z,1013.53
2017-08-27T14:06:03.438Z,1013.52
2017-08-27T14:07:12.088Z,1013.48